x

Lake Winnipeg S. Basin (45140) Wave Buoy

7:00am - Sat 23rd Jul 2016 All times are UTC.

  • Sig Wave height 0.3ft
  • Peak Period 2s
  • Wind
    7mph, 9mph gusts
  • Sea Temp 72°f
  • Air Temp 72°f
  • Sea Pressure 1015.1mb

More Historic Weather Station data

Upgrade to MSW Pro to gain access to the past 30 days of data for over 8000 Wavebouys and Weather Stations around the globe.

Join Pro

Comparision Forecast

View Surf forecast
   
Sat 07/23 7:00am 0.3ft 2s 7 9 mph 1015.1mb 72f 72f
5:00am 0.3ft 2s 4
mph
1016.1mb 73f 72f
4:00am 0.7ft 3s 4
mph
1015.9mb 73f 73f
Fri 07/22 9:00pm 0.7ft 2s 4
mph
1015.7mb 75f 76f
8:00pm 0.7ft 2s 4 7 mph 1015.8mb 74f 75f
6:00pm 1ft 2s 11 13 mph 1015.5mb 72f 74f
5:00pm 0.7ft 2s 9 11 mph 1015.4mb 72f 74f
4:00pm 1ft 2s 7 9 mph 1014.9mb 71f 72f
3:00pm 1.3ft 3s 11 13 mph 1014.6mb 71f 71f
1:00pm 1.6ft 3s 16 18 mph 1013.5mb 71f 69f
12:00pm 1.3ft 3s 16 18 mph 1012.8mb 71f 68f
11:00am 0.7ft 2s 11 16 mph 1012.7mb 71f 68f
10:00am 0.7ft 2s 9 11 mph 1011.9mb 71f 69f
9:00am 1ft 3s 9 11 mph 1012mb 71f 70f
8:00am 1.3ft 3s 7 9 mph 1011.8mb 71f 70f
4:00am 1ft 2s 16 18 mph 1009.1mb 71f 74f
3:00am 0.7ft 2s 9 11 mph 1009.4mb 71f 74f
2:00am 1ft 2s 11 13 mph 1009.5mb 71f 75f
1:00am 1.3ft 3s 7 9 mph 1009.8mb 71f 75f
12:00am 1.6ft 3s 11 13 mph 1009.7mb 71f 77f
Thu 07/21 11:00pm 1.6ft 3s 11 13 mph 1009.8mb 71f 78f
10:00pm 1.6ft 3s 9 13 mph 1009.9mb 71f 76f
9:00pm 2ft 3s 13 16 mph 1010mb 71f 77f
7:00pm 1.3ft 3s 13
mph
1010.1mb 71f 76f
6:00pm 1.3ft 3s 16 20 mph 1009.9mb 71f 76f
5:00pm 1.3ft 3s 13 18 mph 1009.9mb 71f 75f
4:00pm 1.3ft 3s 9 13 mph 1009.7mb 70f 74f
3:00pm  -   -  13
mph
- - -
2:00pm 1.6ft 3s 13 16 mph 1009.4mb 70f 72f
1:00pm 1.6ft 3s 18 20 mph 1008.7mb 70f 71f
11:00am 1.3ft 3s 16 20 mph 1007.8mb 70f 70f
9:00am 0.7ft 2s 9 13 mph 1007mb 70f 70f
8:00am 0.7ft 3s 9
mph
1006.9mb 70f 70f
7:00am 1ft 3s 7 9 mph 1007.5mb 70f 71f
6:00am 1.6ft 4s 7 9 mph 1007.5mb 70f 71f
5:00am 2.5ft 4s 9 11 mph 1008.2mb 70f 73f
3:00am 2.5ft 3s 13 18 mph 1007.6mb 70f 73f
2:00am 1.6ft 3s 20 25 mph 1006.2mb 71f 80f
1:00am 0.3ft 2s 13
mph
1008mb 72f 76f
12:00am 0.3ft 2s 9 11 mph 1007.8mb 73f 76f
Wed 07/20 11:00pm 0.3ft 2s 7 9 mph 1008mb 73f 76f
10:00pm 0.7ft 2s 4 7 mph 1008.6mb 72f 77f
9:00pm 0.7ft 2s 9 11 mph 1008.7mb 72f 76f
8:00pm 0.7ft 2s 11 13 mph 1009.1mb 71f 76f
7:00pm 1ft 3s 11
mph
1010mb 71f 75f
6:00pm 1.3ft 2s 9 11 mph 1010mb 70f 73f
5:00pm 1.3ft 3s 13 18 mph 1008.7mb 70f 73f
4:00pm 1.3ft 3s 13
mph
1009.6mb 69f 71f
3:00pm 1.3ft 3s 11 13 mph 1010.6mb 69f 71f
2:00pm 2ft 4s 9 11 mph 1010.4mb 69f 71f
1:00pm 2.5ft 4s 13 18 mph 1009.7mb 69f 71f
12:00pm 3.5ft 4s 16 18 mph 1009.7mb 69f 71f
11:00am 3ft 4s 25 29 mph 1008.7mb 69f 71f
10:00am 2.5ft 4s 20 25 mph 1010.5mb 69f 71f
9:00am 2ft 3s 20 25 mph 1011mb 69f 71f
8:00am 1.6ft 3s 18 20 mph 1011mb 69f 71f
7:00am 1.6ft 3s 13
mph
1011.3mb 69f 71f
6:00am 1ft 3s 13 18 mph 1011mb 69f 72f
5:00am 0.7ft 3s 13 16 mph 1011.2mb 69f 73f
4:00am 1ft 3s 9 11 mph 1011.3mb 69f 72f
3:00am 1ft 3s 9
mph
1010.9mb 69f 72f
2:00am 1ft 3s 11
mph
1011.4mb 69f 73f
1:00am 1ft 3s 9 11 mph 1012mb 69f 74f
12:00am 1.3ft 3s 9
mph
1012.7mb 69f 73f
Tue 07/19 11:00pm 1.3ft 3s 11 13 mph 1012.7mb 69f 74f
10:00pm 1.6ft 3s 13 16 mph 1012.5mb 69f 74f
9:00pm 1.6ft 2s 20 22 mph 1013.2mb 69f 73f
8:00pm 0.7ft 3s 16 20 mph 1013.7mb 69f 69f
7:00pm 0.7ft 3s 9 11 mph 1017.7mb 69f 70f
6:00pm 1ft 3s 9 11 mph 1017.2mb 69f 71f
5:00pm 1ft 3s 9 11 mph 1016.9mb 69f 71f
4:00pm 1.6ft 3s 9 11 mph 1017.1mb 69f 69f
3:00pm 1.6ft 4s 11 13 mph 1018.3mb 69f 68f
2:00pm 2.5ft 4s 16 18 mph 1018.9mb 69f 68f
1:00pm 2.5ft 4s 18 22 mph 1018.9mb 69f 68f
12:00pm 2.5ft 4s 20 25 mph 1019mb 69f 68f